Wetterdaten: Woche 07.12.15 - 13.12.15 (KW50)
Datum Zeit Temp. A. Feuchte A. Luftdruck Regen Wind Richtung Taupunkt Windchill Windben
07.12.2015 00:00 1,3 C 81 % 1035,1 hPa 0,0 l/m 0,8 km/h N -1,6 C 1,3 C 5,6 km/h
07.12.2015 01:00 1,2 C 81 % 1035,3 hPa 0,0 l/m 0,0 km/h N -1,7 C 1,2 C 4,0 km/h
07.12.2015 02:00 0,9 C 82 % 1035,5 hPa 0,0 l/m 0,0 km/h N -1,9 C 0,9 C 0,8 km/h
07.12.2015 03:00 0,7 C 81 % 1035,7 hPa 0,0 l/m 0,0 km/h N -2,2 C 0,7 C 1,6 km/h
07.12.2015 04:00 0,7 C 81 % 1035,9 hPa 0,0 l/m 0,0 km/h N -2,2 C 0,7 C 3,2 km/h
07.12.2015 05:00 0,6 C 82 % 1036,0 hPa 0,0 l/m 0,0 km/h N -2,2 C 0,6 C 4,0 km/h
07.12.2015 06:00 0,2 C 82 % 1036,1 hPa 0,0 l/m 0,0 km/h N -2,5 C 0,2 C 4,0 km/h
07.12.2015 07:00 0,1 C 81 % 1036,4 hPa 0,0 l/m 0,0 km/h N -2,8 C 0,1 C 3,2 km/h
07.12.2015 08:00 -0,1 C 82 % 1037,3 hPa 0,0 l/m 0,0 km/h N -2,8 C -0,1 C 4,0 km/h
07.12.2015 09:00 0,2 C 81 % 1037,6 hPa 0,0 l/m 0,0 km/h N -2,7 C 0,2 C 4,8 km/h
07.12.2015 10:00 0,4 C 81 % 1038,1 hPa 0,0 l/m 0,0 km/h N -2,5 C 0,4 C 2,4 km/h
07.12.2015 11:00 1,1 C 81 % 1037,8 hPa 0,0 l/m 0,0 km/h N -1,7 C 1,1 C 4,8 km/h
07.12.2015 12:00 1,8 C 81 % 1037,3 hPa 0,0 l/m 0,0 km/h N -1,1 C 1,8 C 6,4 km/h
07.12.2015 13:00 2,7 C 81 % 1036,8 hPa 0,0 l/m 0,0 km/h N -0,2 C 2,7 C 4,0 km/h
07.12.2015 14:00 2,9 C 81 % 1036,7 hPa 0,0 l/m 0,0 km/h N -0,0 C 2,9 C 3,2 km/h
07.12.2015 15:00 2,8 C 81 % 1036,9 hPa 0,0 l/m 0,0 km/h N -0,1 C 2,8 C 2,4 km/h
07.12.2015 16:00 2,7 C 81 % 1037,1 hPa 0,0 l/m 0,0 km/h N -0,3 C 2,7 C 4,0 km/h
07.12.2015 17:00 2,2 C 81 % 1037,4 hPa 0,0 l/m 0,0 km/h N -0,8 C 2,2 C 5,6 km/h
07.12.2015 18:00 1,8 C 81 % 1037,9 hPa 0,0 l/m 0,0 km/h N -1,1 C 1,8 C 4,8 km/h
07.12.2015 19:00 1,5 C 81 % 1038,0 hPa 0,0 l/m 0,0 km/h N -1,4 C 1,5 C 5,6 km/h
07.12.2015 20:00 1,3 C 81 % 1038,4 hPa 0,0 l/m 0,0 km/h N -1,5 C 1,3 C 4,8 km/h
07.12.2015 21:00 1,4 C 81 % 1038,6 hPa 0,0 l/m 0,0 km/h N -1,5 C 1,4 C 4,8 km/h
07.12.2015 22:00 1,3 C 81 % 1038,6 hPa 0,0 l/m 0,0 km/h N -1,6 C 1,3 C 5,6 km/h
07.12.2015 23:00 1,4 C 81 % 1038,6 hPa 0,0 l/m 0,0 km/h N -1,5 C 1,4 C 5,6 km/h
08.12.2015 00:00 1,3 C 81 % 1038,4 hPa 0,0 l/m 0,0 km/h N -1,5 C 1,3 C 6,4 km/h
08.12.2015 01:00 1,3 C 81 % 1038,3 hPa 0,0 l/m 0,8 km/h N -1,6 C 1,3 C 6,4 km/h
08.12.2015 02:00 1,5 C 81 % 1038,1 hPa 0,3 l/m 0,8 km/h N -1,4 C 1,5 C 8,9 km/h
08.12.2015 03:00 1,5 C 81 % 1037,6 hPa 0,0 l/m 0,0 km/h N -1,3 C 1,5 C 4,8 km/h
08.12.2015 04:00 1,8 C 81 % 1037,4 hPa 0,0 l/m 0,8 km/h N -1,1 C 1,8 C 7,2 km/h
08.12.2015 05:00 1,8 C 81 % 1037,5 hPa 0,0 l/m 0,8 km/h N -1,1 C 1,8 C 7,2 km/h
08.12.2015 06:00 1,8 C 81 % 1037,4 hPa 0,0 l/m 0,8 km/h N -1,1 C 1,8 C 9,6 km/h
08.12.2015 07:00 1,5 C 81 % 1037,4 hPa 0,0 l/m 1,6 km/h N -1,4 C 1,5 C 10,5 km/h
08.12.2015 08:00 1,3 C 81 % 1037,4 hPa 0,0 l/m 1,6 km/h N -1,5 C 1,3 C 11,3 km/h
08.12.2015 09:00 1,5 C 81 % 1037,2 hPa 0,0 l/m 1,6 km/h N -1,4 C 1,5 C 8,0 km/h
08.12.2015 10:00 1,8 C 81 % 1037,1 hPa 0,0 l/m 1,6 km/h N -1,1 C 1,8 C 7,3 km/h
08.12.2015 11:00 2,2 C 81 % 1036,4 hPa 0,0 l/m 1,6 km/h N -0,8 C 2,2 C 10,5 km/h
08.12.2015 12:00 2,5 C 81 % 1035,9 hPa 0,0 l/m 1,6 km/h N -0,4 C 2,5 C 12,9 km/h
08.12.2015 13:00 2,7 C 80 % 1035,3 hPa 0,0 l/m 1,8 km/h N -0,4 C 2,7 C 8,0 km/h
08.12.2015 14:00 2,7 C 80 % 1035,2 hPa 0,0 l/m 1,5 km/h N -0,4 C 2,7 C 9,7 km/h
08.12.2015 15:00 2,5 C 80 % 1035,3 hPa 0,0 l/m 3,0 km/h N -0,5 C 2,5 C 11,7 km/h
08.12.2015 16:00 2,3 C 81 % 1035,4 hPa 0,0 l/m 2,9 km/h N -0,6 C 2,3 C 12,5 km/h
08.12.2015 17:00 2,3 C 80 % 1035,4 hPa 0,0 l/m 2,5 km/h N -0,8 C 2,3 C 12,1 km/h
08.12.2015 18:00 2,4 C 80 % 1035,5 hPa 0,0 l/m 1,1 km/h N -0,7 C 2,4 C 8,0 km/h
08.12.2015 19:00 2,3 C 80 % 1035,5 hPa 0,0 l/m 1,6 km/h N -0,8 C 2,3 C 9,2 km/h
08.12.2015 20:00 2,3 C 80 % 1035,2 hPa 0,0 l/m 0,7 km/h N -0,8 C 2,3 C 7,6 km/h
08.12.2015 21:00 2,2 C 80 % 1034,9 hPa 0,0 l/m 0,4 km/h N -0,9 C 2,2 C 5,2 km/h
08.12.2015 22:00 2,1 C 80 % 1034,7 hPa 0,0 l/m 0,1 km/h N -1,0 C 2,1 C 2,0 km/h
08.12.2015 23:00 2,0 C 80 % 1034,6 hPa 0,0 l/m 0,3 km/h N -1,0 C 2,0 C 5,2 km/h
09.12.2015 00:00 2,0 C 80 % 1034,3 hPa 0,0 l/m 0,4 km/h N -1,1 C 2,0 C 4,4 km/h
09.12.2015 01:00 1,9 C 80 % 1034,1 hPa 0,0 l/m 0,8 km/h N -1,2 C 1,9 C 5,6 km/h
09.12.2015 02:00 1,9 C 80 % 1034,0 hPa 0,0 l/m 0,1 km/h N -1,2 C 1,9 C 4,0 km/h
09.12.2015 03:00 1,8 C 81 % 1033,7 hPa 0,0 l/m 0,1 km/h N -1,1 C 1,8 C 2,8 km/h
09.12.2015 04:00 1,8 C 81 % 1033,5 hPa 0,0 l/m 0,1 km/h N -1,1 C 1,8 C 2,8 km/h
09.12.2015 05:00 1,8 C 80 % 1033,5 hPa 0,0 l/m 0,0 km/h N -1,3 C 1,8 C 0,4 km/h
09.12.2015 06:00 1,7 C 80 % 1033,7 hPa 0,0 l/m 0,0 km/h N -1,3 C 1,7 C 0,0 km/h
09.12.2015 07:00 1,8 C 81 % 1033,6 hPa 0,0 l/m 0,0 km/h N -1,1 C 1,8 C 0,0 km/h
09.12.2015 08:00 2,0 C 80 % 1033,6 hPa 0,0 l/m 0,2 km/h N -1,0 C 2,0 C 3,2 km/h
09.12.2015 09:00 2,4 C 81 % 1033,5 hPa 0,0 l/m 0,0 km/h N -0,6 C 2,4 C 2,4 km/h
09.12.2015 10:00 2,9 C 80 % 1033,5 hPa 0,0 l/m 0,0 km/h N -0,2 C 2,9 C 3,2 km/h
09.12.2015 11:00 3,3 C 80 % 1032,9 hPa 0,0 l/m 0,0 km/h N 0,1 C 3,3 C 4,0 km/h
09.12.2015 12:00 3,6 C 81 % 1032,9 hPa 0,0 l/m 0,0 km/h N 0,5 C 3,6 C 4,8 km/h
09.12.2015 13:00 4,1 C 81 % 1032,7 hPa 0,0 l/m 0,0 km/h N 1,0 C 4,1 C 0,8 km/h
09.12.2015 14:00 4,3 C 81 % 1032,6 hPa 0,0 l/m 0,0 km/h N 1,4 C 4,3 C 0,0 km/h
09.12.2015 15:00 4,5 C 82 % 1033,1 hPa 0,0 l/m 0,0 km/h N 1,6 C 4,5 C 0,0 km/h
09.12.2015 16:00 4,4 C 82 % 1033,5 hPa 0,0 l/m 0,0 km/h N 1,6 C 4,4 C 0,0 km/h
09.12.2015 17:00 4,7 C 82 % 1033,9 hPa 0,3 l/m 2,6 km/h N 1,9 C 4,2 C 11,6 km/h
09.12.2015 18:00 6,2 C 84 % 1034,2 hPa 0,0 l/m 15,4 km/h N 3,6 C 0,3 C 34,6 km/h
09.12.2015 19:00 5,7 C 83 % 1034,9 hPa 0,0 l/m 14,6 km/h N 3,0 C 0,1 C 34,2 km/h
09.12.2015 20:00 5,1 C 83 % 1035,6 hPa 0,0 l/m 15,2 km/h N 2,4 C -0,8 C 33,0 km/h
09.12.2015 21:00 4,8 C 83 % 1036,2 hPa 0,0 l/m 15,3 km/h N 2,2 C -1,3 C 31,4 km/h
09.12.2015 22:00 4,8 C 84 % 1036,7 hPa 0,0 l/m 11,6 km/h N 2,3 C 0,8 C 28,2 km/h
09.12.2015 23:00 5,2 C 84 % 1037,2 hPa 0,0 l/m 10,8 km/h N 2,6 C 1,7 C 26,1 km/h
10.12.2015 00:00 5,5 C 83 % 1037,3 hPa 0,0 l/m 10,4 km/h N 2,8 C 2,3 C 23,3 km/h
10.12.2015 01:00 5,6 C 83 % 1037,3 hPa 0,0 l/m 10,9 km/h N 2,9 C 2,2 C 23,7 km/h
10.12.2015 02:00 5,8 C 82 % 1037,5 hPa 0,0 l/m 9,8 km/h N 2,9 C 3,1 C 24,1 km/h
10.12.2015 03:00 5,7 C 82 % 1037,6 hPa 0,0 l/m 8,8 km/h N 2,9 C 3,7 C 22,5 km/h
10.12.2015 04:00 5,6 C 82 % 1037,6 hPa 0,0 l/m 9,5 km/h N 2,8 C 3,1 C 22,9 km/h
10.12.2015 05:00 5,3 C 82 % 1037,8 hPa 0,0 l/m 7,8 km/h N 2,4 C 4,2 C 21,3 km/h
10.12.2015 06:00 4,8 C 82 % 1038,1 hPa 0,0 l/m 6,4 km/h N 2,0 C 4,6 C 18,1 km/h
10.12.2015 07:00 4,6 C 82 % 1038,4 hPa 0,0 l/m 6,9 km/h N 1,7 C 4,2 C 18,5 km/h
10.12.2015 08:00 4,4 C 81 % 1038,8 hPa 0,0 l/m 5,6 km/h N 1,4 C 4,4 C 16,1 km/h
10.12.2015 09:00 4,9 C 82 % 1038,9 hPa 0,0 l/m 4,0 km/h N 2,0 C 4,9 C 11,3 km/h
10.12.2015 10:00 6,1 C 77 % 1038,7 hPa 0,0 l/m 6,4 km/h N 2,3 C 6,1 C 19,3 km/h
10.12.2015 11:00 7,1 C 71 % 1038,2 hPa 0,0 l/m 6,4 km/h N 2,2 C 7,1 C 16,9 km/h
10.12.2015 12:00 7,4 C 68 % 1037,6 hPa 0,0 l/m 7,2 km/h N 1,7 C 6,7 C 17,7 km/h
10.12.2015 13:00 7,5 C 67 % 1037,0 hPa 0,0 l/m 6,4 km/h N 1,8 C 7,5 C 16,9 km/h
10.12.2015 14:00 7,1 C 70 % 1036,6 hPa 0,0 l/m 3,2 km/h N 1,9 C 7,1 C 14,5 km/h
10.12.2015 15:00 7,0 C 69 % 1036,3 hPa 0,0 l/m 4,0 km/h N 1,7 C 7,0 C 12,9 km/h
10.12.2015 16:00 5,5 C 71 % 1036,1 hPa 0,0 l/m 0,0 km/h N 0,7 C 5,5 C 1,6 km/h
10.12.2015 17:00 2,7 C 75 % 1035,8 hPa 0,0 l/m 0,0 km/h N -1,3 C 2,7 C 0,0 km/h
10.12.2015 18:00 0,7 C 79 % 1035,9 hPa 0,0 l/m 0,0 km/h N -2,6 C 0,7 C 0,0 km/h
10.12.2015 19:00 -0,1 C 83 % 1035,9 hPa 0,0 l/m 0,0 km/h N -2,7 C -0,1 C 3,2 km/h
10.12.2015 20:00 -0,8 C 84 % 1035,6 hPa 0,0 l/m 0,0 km/h N -3,2 C -0,8 C 0,0 km/h
10.12.2015 21:00 -1,3 C 84 % 1035,3 hPa 0,0 l/m 0,0 km/h N -3,6 C -1,3 C 0,0 km/h
10.12.2015 22:00 -1,9 C 84 % 1034,8 hPa 0,0 l/m 0,0 km/h N -4,2 C -1,9 C 0,0 km/h
10.12.2015 23:00 -2,4 C 84 % 1034,4 hPa 0,0 l/m 0,0 km/h N -4,7 C -2,4 C 0,0 km/h
11.12.2015 00:00 -3,1 C 84 % 1033,8 hPa 0,0 l/m 0,0 km/h N -5,4 C -3,1 C 0,0 km/h
11.12.2015 01:00 -3,9 C 84 % 1033,4 hPa 0,0 l/m 0,0 km/h N -6,2 C -3,9 C 0,0 km/h
11.12.2015 02:00 -4,2 C 84 % 1033,1 hPa 0,0 l/m 0,0 km/h N -6,5 C -4,2 C 0,0 km/h
11.12.2015 03:00 -4,6 C 84 % 1032,4 hPa 0,0 l/m 0,0 km/h N -6,9 C -4,6 C 0,0 km/h
11.12.2015 04:00 -5,1 C 84 % 1032,2 hPa 0,0 l/m 0,0 km/h N -7,3 C -5,1 C 0,0 km/h
11.12.2015 05:00 -5,4 C 84 % 1031,9 hPa 0,0 l/m 0,0 km/h N -7,6 C -5,4 C 0,0 km/h
11.12.2015 06:00 -5,6 C 84 % 1031,9 hPa 0,0 l/m 0,0 km/h N -7,8 C -5,6 C 0,0 km/h
11.12.2015 07:00 -5,9 C 84 % 1031,9 hPa 0,0 l/m 0,0 km/h N -8,1 C -5,9 C 0,0 km/h
11.12.2015 08:00 -5,9 C 84 % 1031,9 hPa 0,0 l/m 0,0 km/h N -8,2 C -5,9 C 0,0 km/h
11.12.2015 09:00 -3,9 C 83 % 1031,7 hPa 0,0 l/m 0,3 km/h N -6,4 C -3,9 C 2,4 km/h
11.12.2015 10:00 -2,3 C 83 % 1031,6 hPa 0,3 l/m 0,3 km/h N -4,8 C -2,3 C 3,2 km/h
11.12.2015 11:00 -1,1 C 83 % 1030,9 hPa 0,0 l/m 0,0 km/h N -3,6 C -1,1 C 0,8 km/h
11.12.2015 12:00 -0,2 C 82 % 1030,3 hPa 0,0 l/m 0,3 km/h N -2,9 C -0,2 C 4,0 km/h
11.12.2015 13:00 0,5 C 82 % 1029,5 hPa 0,0 l/m 0,2 km/h N -2,2 C 0,5 C 3,6 km/h
11.12.2015 14:00 1,6 C 83 % 1029,2 hPa 0,0 l/m 0,0 km/h N -1,0 C 1,6 C 2,0 km/h
11.12.2015 15:00 1,5 C 83 % 1029,1 hPa 0,0 l/m 0,0 km/h N -1,1 C 1,5 C 0,8 km/h
11.12.2015 16:00 0,2 C 84 % 1029,2 hPa 0,0 l/m 0,0 km/h N -2,2 C 0,2 C 0,0 km/h
11.12.2015 17:00 -1,1 C 84 % 1029,1 hPa 0,0 l/m 0,0 km/h N -3,5 C -1,1 C 0,8 km/h
11.12.2015 18:00 -1,9 C 84 % 1029,1 hPa 0,0 l/m 0,0 km/h N -4,2 C -1,9 C 0,0 km/h
11.12.2015 19:00 -2,0 C 84 % 1028,9 hPa 0,0 l/m 0,1 km/h N -4,3 C -2,0 C 2,0 km/h
11.12.2015 20:00 -1,8 C 84 % 1028,6 hPa 0,0 l/m 0,4 km/h N -4,2 C -1,8 C 2,0 km/h
11.12.2015 21:00 -1,8 C 84 % 1028,1 hPa 0,0 l/m 0,0 km/h N -4,2 C -1,8 C 0,4 km/h
11.12.2015 22:00 -1,7 C 83 % 1027,7 hPa 0,0 l/m 0,0 km/h N -4,2 C -1,7 C 0,8 km/h
11.12.2015 23:00 -1,3 C 83 % 1027,4 hPa 0,0 l/m 0,1 km/h N -3,8 C -1,3 C 2,0 km/h
12.12.2015 00:00 -1,0 C 83 % 1026,5 hPa 0,0 l/m 0,1 km/h N -3,5 C -1,0 C 2,4 km/h
12.12.2015 01:00 -0,8 C 83 % 1025,6 hPa 0,0 l/m 0,1 km/h N -3,3 C -0,8 C 1,2 km/h
12.12.2015 02:00 -1,2 C 83 % 1025,1 hPa 0,0 l/m 0,2 km/h N -3,7 C -1,2 C 2,0 km/h
12.12.2015 03:00 -1,5 C 83 % 1024,8 hPa 0,0 l/m 0,4 km/h N -4,0 C -1,5 C 4,8 km/h
12.12.2015 04:00 -0,5 C 83 % 1024,4 hPa 0,0 l/m 0,4 km/h N -3,1 C -0,5 C 4,8 km/h
12.12.2015 05:00 6,4 C 77 % 1023,7 hPa 0,0 l/m 5,6 km/h N 2,7 C 6,0 C 23,3 km/h
12.12.2015 06:00 9,6 C 63 % 1023,7 hPa 0,0 l/m 9,1 km/h N 2,9 C 7,6 C 28,2 km/h
12.12.2015 07:00 9,6 C 65 % 1023,8 hPa 0,0 l/m 10,5 km/h N 3,3 C 6,9 C 34,2 km/h
12.12.2015 08:00 9,7 C 66 % 1024,3 hPa 0,0 l/m 11,0 km/h N 3,6 C 6,7 C 32,6 km/h
12.12.2015 09:00 9,9 C 66 % 1024,7 hPa 0,0 l/m 10,1 km/h N 3,7 C 7,4 C 33,4 km/h
12.12.2015 10:00 9,6 C 70 % 1025,1 hPa 0,0 l/m 6,7 km/h N 4,4 C 9,2 C 20,9 km/h
12.12.2015 11:00 10,0 C 68 % 1024,9 hPa 0,0 l/m 6,7 km/h N 4,3 C 9,3 C 23,7 km/h
12.12.2015 12:00 10,3 C 65 % 1024,5 hPa 0,0 l/m 6,8 km/h N 4,1 C 10,0 C 23,7 km/h
12.12.2015 13:00 10,1 C 69 % 1024,2 hPa 0,3 l/m 7,8 km/h N 4,7 C 9,1 C 25,3 km/h
12.12.2015 14:00 9,4 C 74 % 1024,4 hPa 0,3 l/m 7,7 km/h N 5,0 C 8,5 C 22,5 km/h
12.12.2015 15:00 8,8 C 78 % 1024,8 hPa 0,5 l/m 5,9 km/h N 5,2 C 8,7 C 19,7 km/h
12.12.2015 16:00 8,7 C 79 % 1024,9 hPa 0,0 l/m 5,9 km/h N 5,3 C 8,4 C 18,1 km/h
12.12.2015 17:00 8,8 C 79 % 1024,7 hPa 0,0 l/m 4,1 km/h N 5,3 C 8,6 C 13,3 km/h
12.12.2015 18:00 8,9 C 78 % 1024,5 hPa 0,0 l/m 0,8 km/h N 5,3 C 8,9 C 5,2 km/h
12.12.2015 19:00 7,9 C 79 % 1024,3 hPa 0,0 l/m 0,0 km/h N 4,4 C 7,9 C 0,0 km/h
12.12.2015 20:00 6,5 C 81 % 1023,8 hPa 0,0 l/m 0,0 km/h N 3,5 C 6,5 C 0,0 km/h
12.12.2015 21:00 5,4 C 83 % 1023,9 hPa 0,0 l/m 0,0 km/h N 2,7 C 5,4 C 0,8 km/h
12.12.2015 22:00 4,7 C 83 % 1023,7 hPa 0,0 l/m 0,0 km/h N 2,1 C 4,7 C 0,4 km/h
12.12.2015 23:00 3,9 C 84 % 1023,3 hPa 0,0 l/m 0,0 km/h N 1,4 C 3,9 C 0,8 km/h
13.12.2015 00:00 3,0 C 84 % 1022,7 hPa 0,0 l/m 0,0 km/h N 0,6 C 3,0 C 0,4 km/h
13.12.2015 01:00 2,6 C 83 % 1021,7 hPa 0,0 l/m 0,0 km/h N 0,0 C 2,6 C 0,0 km/h
13.12.2015 02:00 2,0 C 84 % 1021,2 hPa 0,0 l/m 0,0 km/h N -0,5 C 2,0 C 0,0 km/h
13.12.2015 03:00 1,3 C 84 % 1020,4 hPa 0,0 l/m 0,0 km/h N -1,2 C 1,3 C 0,0 km/h
13.12.2015 04:00 0,8 C 84 % 1020,0 hPa 0,0 l/m 0,0 km/h N -1,7 C 0,8 C 0,0 km/h
13.12.2015 05:00 0,0 C 83 % 1019,8 hPa 0,0 l/m 0,0 km/h N -2,5 C 0,0 C 0,0 km/h
13.12.2015 06:00 -0,7 C 83 % 1019,5 hPa 0,0 l/m 0,0 km/h N -3,2 C -0,7 C 0,0 km/h
13.12.2015 07:00 -1,2 C 84 % 1019,6 hPa 0,0 l/m 0,0 km/h N -3,6 C -1,2 C 0,8 km/h
13.12.2015 08:00 -1,3 C 83 % 1019,9 hPa 0,0 l/m 0,0 km/h N -3,8 C -1,3 C 1,2 km/h
13.12.2015 09:00 -0,4 C 83 % 1019,6 hPa 0,0 l/m 0,1 km/h N -2,9 C -0,4 C 0,8 km/h
13.12.2015 10:00 1,0 C 82 % 1019,5 hPa 0,0 l/m 0,1 km/h N -1,7 C 1,0 C 1,2 km/h
13.12.2015 11:00 3,0 C 82 % 1018,8 hPa 0,0 l/m 0,2 km/h N 0,2 C 3,0 C 3,2 km/h
13.12.2015 12:00 5,2 C 81 % 1018,2 hPa 0,0 l/m 0,2 km/h N 2,2 C 5,2 C 2,8 km/h
13.12.2015 13:00 8,6 C 71 % 1017,9 hPa 0,0 l/m 5,8 km/h N 3,5 C 7,5 C 19,7 km/h
13.12.2015 14:00 10,6 C 53 % 1018,0 hPa 0,0 l/m 12,8 km/h N 1,4 C 6,9 C 37,8 km/h
13.12.2015 15:00 9,6 C 58 % 1019,2 hPa 0,0 l/m 14,4 km/h N 1,7 C 5,0 C 33,4 km/h
13.12.2015 16:00 8,8 C 65 % 1020,0 hPa 0,0 l/m 11,0 km/h N 2,5 C 5,8 C 29,8 km/h
13.12.2015 17:00 9,1 C 69 % 1020,9 hPa 0,0 l/m 9,0 km/h N 3,7 C 7,3 C 24,9 km/h
13.12.2015 18:00 8,7 C 72 % 1021,6 hPa 0,0 l/m 8,8 km/h N 3,9 C 6,9 C 22,9 km/h
13.12.2015 19:00 8,7 C 73 % 1022,3 hPa 0,0 l/m 5,8 km/h N 4,1 C 8,6 C 18,9 km/h
13.12.2015 20:00 8,6 C 74 % 1022,8 hPa 0,0 l/m 6,0 km/h N 4,2 C 8,5 C 18,9 km/h
13.12.2015 21:00 8,5 C 75 % 1023,4 hPa 0,0 l/m 7,3 km/h N 4,3 C 7,7 C 19,3 km/h
13.12.2015 22:00 7,5 C 80 % 1024,0 hPa 0,0 l/m 3,7 km/h N 4,3 C 7,5 C 10,1 km/h
13.12.2015 23:00 6,7 C 83 % 1024,5 hPa 0,0 l/m 1,8 km/h N 4,0 C 6,7 C 6,8 km/h
Min-Datum _ 11.12.15 13.12.15 13.12.15 - 07.12.15 - 11.12.15 11.12.15 07.12.15
_ Min-Zeit 07:45 14:30 13:45 - 00:30 - 07:45 07:45 02:00
Minimum _ -6,1 C 52 % 1017,8 hPa - 0,0 km/h - -8,4 C -6,1 C 0,0 km/h
Max-Datum _ 13.12.15 09.12.15 10.12.15 12.12.15 09.12.15 - 12.12.15 12.12.15 13.12.15
_ Max-Zeit 14:00 18:00 08:30 15:15 18:30 - 16:45 12:30 14:15
Maximum _ 10,9 C 84 % 1038,9 hPa 0,5 l/m 17,5 km/h
N
- 5,4 C 10,4 C 46,7 km/h
N
Durchschnitt _ 2,8 C 80 % 1031,4 hPa #1,8 l/m 2,5 km/h N -0,5 C 2,3 C 8,7 km/h